Time;durP1;ratioP1;P1;durP2;ratioP2;P2;SDS_P1;SDS_P2;PMS_P1;PMS_P2;Temp;Humidity;BMP_temperature;BMP_pressure;BME280_temperature;BME280_humidity;BME280_pressure;Samples;Min_cycle;Max_cycle;Signal;HPM_P1;HPM_P2
2023/05/21 00:00:15;;;;;;;0.10;0.10;;;;;;;21.64;43.74;101335.94;5135742;27;20479;-39
2023/05/21 00:02:41;;;;;;;0.20;0.20;;;;;;;21.64;43.74;101335.13;5117542;27;20169;-39
2023/05/21 00:05:13;;;;;;;0.10;0.10;;;;;;;21.60;43.80;101334.84;5138763;27;20043;-39
2023/05/21 00:07:40;;;;;;;0.20;0.20;;;;;;;21.62;43.92;101338.16;5138871;27;20051;-39
2023/05/21 00:10:06;;;;;;;0.20;0.20;;;;;;;21.62;43.78;101334.56;5120366;27;20401;-39
2023/05/21 00:12:32;;;;;;;0.10;0.10;;;;;;;21.62;43.85;101332.63;5138892;27;20066;-39
2023/05/21 00:14:58;;;;;;;0.20;0.20;;;;;;;21.62;43.88;101337.34;5138659;27;20506;-39
2023/05/21 00:17:24;;;;;;;0.10;0.10;;;;;;;21.61;43.79;101330.97;5120004;27;20062;-39
2023/05/21 00:19:50;;;;;;;0.20;0.20;;;;;;;21.59;43.89;101327.66;5138509;27;20054;-39
2023/05/21 00:22:16;;;;;;;0.20;0.20;;;;;;;21.61;43.82;101330.97;5138653;27;20042;-39
2023/05/21 00:24:44;;;;;;;0.20;0.20;;;;;;;21.63;43.77;101320.44;5120128;27;20050;-39
2023/05/21 00:27:11;;;;;;;0.20;0.20;;;;;;;21.64;43.79;101318.50;5115219;28;20455;-39
2023/05/21 00:29:37;;;;;;;0.20;0.20;;;;;;;21.62;43.75;101327.06;5120071;27;20614;-39
2023/05/21 00:32:03;;;;;;;0.10;0.10;;;;;;;21.64;43.68;101321.25;5138640;27;20042;-39
2023/05/21 00:34:28;;;;;;;0.10;0.10;;;;;;;21.63;43.94;101322.34;5138265;27;20433;-39
2023/05/21 00:36:54;;;;;;;0.20;0.20;;;;;;;21.61;43.75;101313.50;5137981;27;20084;-39
2023/05/21 00:39:20;;;;;;;0.20;0.20;;;;;;;21.63;43.84;101325.13;5138176;27;20050;-39
2023/05/21 00:41:47;;;;;;;0.10;0.10;;;;;;;21.62;43.87;101318.75;5138392;27;20498;-39
2023/05/21 00:44:13;;;;;;;0.20;0.20;;;;;;;21.63;43.79;101319.56;5119851;27;20094;-39
2023/05/21 00:46:40;;;;;;;0.20;0.20;;;;;;;21.62;43.86;101313.22;5107061;28;20062;-39
2023/05/21 00:49:06;;;;;;;0.13;0.13;;;;;;;21.63;43.86;101309.34;5126346;27;20042;-39
2023/05/21 00:51:32;;;;;;;0.10;0.10;;;;;;;21.64;43.72;101315.72;5138097;27;20042;-39
2023/05/21 00:53:57;;;;;;;0.20;0.20;;;;;;;21.61;43.79;101303.25;5121471;27;20797;-39
2023/05/21 00:56:23;;;;;;;0.10;0.10;;;;;;;21.63;43.92;101305.72;5117736;28;20575;-39
2023/05/21 00:58:50;;;;;;;0.20;0.20;;;;;;;21.61;43.88;101311.56;5082434;28;20183;-39
2023/05/21 01:01:17;;;;;;;0.20;0.20;;;;;;;21.62;43.78;101304.91;5099248;28;20043;-39
2023/05/21 01:03:43;;;;;;;0.10;0.10;;;;;;;21.62;43.87;101313.22;5117606;28;20047;-39
2023/05/21 01:06:09;;;;;;;0.20;0.20;;;;;;;21.60;43.83;101304.38;5117678;28;20437;-39
2023/05/21 01:08:36;;;;;;;0.20;0.20;;;;;;;21.61;43.75;101307.97;5117374;28;20039;-39
2023/05/21 01:11:02;;;;;;;0.20;0.20;;;;;;;21.61;43.86;101313.50;5132042;27;20043;-39
2023/05/21 01:13:28;;;;;;;0.20;0.20;;;;;;;21.63;43.77;101306.56;5119605;27;20062;-39
2023/05/21 01:15:54;;;;;;;0.13;0.13;;;;;;;21.64;43.63;101308.22;5138164;27;20046;-39
2023/05/21 01:18:20;;;;;;;0.20;0.20;;;;;;;21.61;43.92;101303.25;5137768;27;20417;-39
2023/05/21 01:20:48;;;;;;;0.20;0.20;;;;;;;21.63;43.79;101305.72;5138026;27;20046;-39
2023/05/21 01:23:15;;;;;;;0.20;0.20;;;;;;;21.62;43.85;101304.06;5138376;27;20054;-39
2023/05/21 01:25:42;;;;;;;0.20;0.20;;;;;;;21.62;43.78;101302.13;5119126;27;20050;-39
2023/05/21 01:28:07;;;;;;;0.20;0.20;;;;;;;21.63;43.79;101305.72;5111531;28;20608;-39
2023/05/21 01:30:34;;;;;;;0.20;0.20;;;;;;;21.62;43.78;101299.34;5127112;27;20122;-39
2023/05/21 01:33:02;;;;;;;0.10;0.10;;;;;;;21.64;43.82;101299.09;5138243;27;20050;-39
2023/05/21 01:35:34;;;;;;;0.20;0.20;;;;;;;21.62;43.89;101293.81;5137696;27;20039;-39
2023/05/21 01:38:30;;;;;;;0.10;0.10;;;;;;;21.61;43.87;101283.84;5118840;27;20107;-39
2023/05/21 01:41:02;;;;;;;0.10;0.10;;;;;;;21.63;43.88;101280.78;5118481;27;20457;-38
2023/05/21 01:43:30;;;;;;;0.20;0.20;;;;;;;21.61;43.83;101285.78;5119654;27;20586;-39
2023/05/21 01:45:56;;;;;;;;;;;;;;;21.63;43.81;101287.19;5119480;27;20433;-39
2023/05/21 01:48:23;;;;;;;0.20;0.20;;;;;;;21.63;43.79;101286.31;5124249;27;19919;-39
2023/05/21 01:50:50;;;;;;;0.20;0.20;;;;;;;21.63;43.80;101283.53;5129537;27;20493;-38
2023/05/21 01:53:16;;;;;;;0.10;0.10;;;;;;;21.63;43.81;101289.94;5137903;27;20077;-39
2023/05/21 01:55:42;;;;;;;0.20;0.20;;;;;;;21.63;43.70;101280.78;5137608;27;20043;-39
2023/05/21 01:58:08;;;;;;;0.10;0.10;;;;;;;21.62;43.93;101277.19;5137067;27;20462;-39
2023/05/21 02:00:34;;;;;;;0.13;0.13;;;;;;;21.62;43.89;101279.94;5136422;27;20304;-39
2023/05/21 02:03:00;;;;;;;0.20;0.20;;;;;;;21.64;43.71;101276.91;5136754;27;20043;-39
2023/05/21 02:05:26;;;;;;;0.10;0.10;;;;;;;21.62;43.83;101271.63;5136562;27;20043;-39
2023/05/21 02:07:52;;;;;;;0.20;0.20;;;;;;;21.63;43.80;101275.22;5135894;27;20457;-39
2023/05/21 02:10:18;;;;;;;0.20;0.20;;;;;;;21.64;43.76;101277.72;5136144;27;20066;-38
2023/05/21 02:12:43;;;;;;;0.10;0.10;;;;;;;21.62;43.95;101268.88;5136686;27;20065;-39
2023/05/21 02:15:09;;;;;;;0.20;0.20;;;;;;;21.61;44.02;101270.00;5136619;27;20503;-39
2023/05/21 02:17:37;;;;;;;0.10;0.10;;;;;;;21.62;43.84;101268.88;5136286;27;20500;-39
2023/05/21 02:20:10;;;;;;;0.20;0.20;;;;;;;21.62;43.92;101268.88;5136058;27;20406;-39
2023/05/21 02:22:39;;;;;;;0.20;0.20;;;;;;;21.63;43.89;101266.91;5136512;27;20135;-39
2023/05/21 02:25:07;;;;;;;0.20;0.20;;;;;;;21.65;43.91;101270.25;5136609;27;20043;-39
2023/05/21 02:27:35;;;;;;;;;;;;;;;21.62;43.94;101268.88;5117886;27;20038;-39
2023/05/21 02:30:03;;;;;;;0.20;0.20;;;;;;;21.62;43.86;101263.31;5108706;28;20384;-39
2023/05/21 02:32:30;;;;;;;0.10;0.10;;;;;;;21.62;44.01;101266.09;5093681;28;20131;-39
2023/05/21 02:34:57;;;;;;;0.20;0.20;;;;;;;21.63;43.86;101262.22;5095236;28;20043;-39
2023/05/21 02:37:26;;;;;;;0.20;0.20;;;;;;;21.64;43.83;101266.66;5095277;28;20475;-39
2023/05/21 02:39:53;;;;;;;0.10;0.10;;;;;;;21.62;43.86;101259.72;5084543;27;20085;-39
2023/05/21 02:42:19;;;;;;;0.10;0.10;;;;;;;21.63;43.81;101261.38;5117731;27;20069;-39
2023/05/21 02:44:44;;;;;;;0.20;0.20;;;;;;;21.61;43.92;101261.69;5136373;27;20434;-39
2023/05/21 02:47:11;;;;;;;0.10;0.10;;;;;;;21.61;43.87;101253.34;5119926;27;20054;-39
2023/05/21 02:49:37;;;;;;;0.20;0.20;;;;;;;21.63;43.84;101253.06;5103745;27;20039;-39
2023/05/21 02:52:03;;;;;;;0.10;0.10;;;;;;;21.61;43.87;101250.59;5115451;28;20039;-39
2023/05/21 02:54:29;;;;;;;0.20;0.20;;;;;;;21.59;43.99;101252.84;5115522;28;20518;-39
2023/05/21 02:56:55;;;;;;;0.20;0.20;;;;;;;21.61;43.90;101247.81;5115808;28;20144;-39
2023/05/21 02:59:21;;;;;;;0.10;0.10;;;;;;;21.65;43.87;101253.63;5115796;27;20141;-39
2023/05/21 03:01:46;;;;;;;0.10;0.10;;;;;;;21.63;43.81;101250.28;5135559;27;20057;-39
2023/05/21 03:04:12;;;;;;;0.20;0.20;;;;;;;21.60;43.95;101246.16;5136227;27;20573;-39
2023/05/21 03:06:38;;;;;;;0.10;0.10;;;;;;;21.63;43.83;101244.75;5136302;27;20459;-39
2023/05/21 03:09:04;;;;;;;0.20;0.20;;;;;;;21.62;44.05;101249.47;5136166;27;20152;-39
2023/05/21 03:11:30;;;;;;;0.20;0.20;;;;;;;21.63;43.80;101244.75;5135575;27;20073;-39
2023/05/21 03:13:56;;;;;;;0.20;0.20;;;;;;;21.61;43.88;101242.28;5135936;27;20421;-39
2023/05/21 03:16:22;;;;;;;0.20;0.20;;;;;;;21.65;43.88;101236.97;5136053;27;20057;-39
2023/05/21 03:18:48;;;;;;;0.10;0.10;;;;;;;21.62;43.83;101234.78;5117728;27;20047;-39
2023/05/21 03:21:14;;;;;;;0.10;0.10;;;;;;;21.63;43.99;101237.28;5135486;27;20166;-39
2023/05/21 03:23:41;;;;;;;0.10;0.10;;;;;;;21.61;43.92;101228.41;5135695;27;20047;-39
2023/05/21 03:26:07;;;;;;;0.20;0.20;;;;;;;21.64;43.81;101236.16;5135823;27;20047;-39
2023/05/21 03:28:34;;;;;;;0.10;0.10;;;;;;;21.62;43.78;101232.84;5117717;27;20417;-39
2023/05/21 03:30:59;;;;;;;0.10;0.10;;;;;;;21.62;43.80;101235.59;5133788;27;20070;-39
2023/05/21 03:33:25;;;;;;;0.10;0.10;;;;;;;21.62;43.93;101232.00;5108672;28;20454;-39
2023/05/21 03:35:51;;;;;;;0.10;0.10;;;;;;;21.64;43.90;101241.69;5115155;27;20050;-39
2023/05/21 03:38:16;;;;;;;0.20;0.20;;;;;;;21.64;43.93;101233.38;5115485;27;20468;-39
2023/05/21 03:40:42;;;;;;;0.10;0.10;;;;;;;21.61;43.95;101241.44;5129850;27;20057;-39
2023/05/21 03:43:08;;;;;;;0.20;0.20;;;;;;;21.62;43.91;101243.91;5139330;27;20246;-39
2023/05/21 03:45:33;;;;;;;0.10;0.10;;;;;;;21.62;43.93;101230.06;5138838;27;20057;-39
2023/05/21 03:48:00;;;;;;;0.20;0.20;;;;;;;21.62;43.70;101224.53;5108639;27;20051;-39
2023/05/21 03:50:26;;;;;;;0.20;0.20;;;;;;;21.62;43.96;101230.06;5116658;27;20569;-39
2023/05/21 03:52:52;;;;;;;0.10;0.10;;;;;;;21.63;43.88;101245.59;5118301;27;20047;-39
2023/05/21 03:55:17;;;;;;;0.20;0.20;;;;;;;21.62;43.81;101235.59;5118503;28;20054;-39
2023/05/21 03:57:43;;;;;;;0.10;0.10;;;;;;;21.64;43.92;101236.16;5118196;28;20486;-39
2023/05/21 04:00:09;;;;;;;0.15;0.15;;;;;;;21.62;43.94;101235.59;5125139;27;20043;-39
2023/05/21 04:02:35;;;;;;;0.20;0.20;;;;;;;21.62;43.81;101235.59;5138893;27;20570;-39
2023/05/21 04:05:01;;;;;;;0.20;0.20;;;;;;;21.63;44.00;101239.19;5138455;27;20374;-39
2023/05/21 04:07:28;;;;;;;0.20;0.20;;;;;;;21.64;43.85;101238.94;5138192;27;20078;-39
2023/05/21 04:09:54;;;;;;;0.10;0.10;;;;;;;21.66;43.90;101249.72;5138725;27;20063;-39
2023/05/21 04:12:21;;;;;;;0.10;0.10;;;;;;;21.64;43.85;101246.44;5138756;27;20113;-39
2023/05/21 04:14:46;;;;;;;0.20;0.20;;;;;;;21.63;43.91;101241.97;5138882;27;20043;-39
2023/05/21 04:17:12;;;;;;;0.20;0.20;;;;;;;21.63;43.89;101242.81;5119685;27;20109;-39
2023/05/21 04:19:38;;;;;;;0.17;0.17;;;;;;;21.64;43.95;101238.94;5138834;27;20269;-39
2023/05/21 04:22:04;;;;;;;0.20;0.20;;;;;;;21.64;43.69;101238.09;5138470;27;20051;-39
2023/05/21 04:24:30;;;;;;;0.13;0.13;;;;;;;21.65;43.90;101239.75;5138387;27;20504;-39
2023/05/21 04:26:59;;;;;;;0.20;0.20;;;;;;;21.63;43.91;101236.44;5138552;27;20039;-39
2023/05/21 04:29:26;;;;;;;0.20;0.20;;;;;;;21.65;43.77;101242.53;5120496;27;20051;-39
2023/05/21 04:31:52;;;;;;;0.25;0.25;;;;;;;21.66;43.94;101244.19;5138642;27;20050;-39
2023/05/21 04:34:18;;;;;;;0.20;0.20;;;;;;;21.66;43.71;101246.94;5123343;27;20047;-39
2023/05/21 04:36:44;;;;;;;0.20;0.20;;;;;;;21.63;43.95;101245.59;5117357;28;20108;-39
2023/05/21 04:39:11;;;;;;;0.20;0.20;;;;;;;21.66;43.86;101241.41;5099432;28;20078;-39
2023/05/21 04:41:37;;;;;;;0.20;0.20;;;;;;;21.63;43.87;101244.75;5137335;27;20509;-39
2023/05/21 04:44:05;;;;;;;0.20;0.20;;;;;;;21.62;43.91;101246.69;5138409;27;20078;-38
2023/05/21 04:46:31;;;;;;;0.10;0.10;;;;;;;21.64;43.94;101250.00;5110505;27;22128;-39
2023/05/21 04:49:01;;;;;;;0.20;0.20;;;;;;;21.63;43.89;101241.97;5137896;27;20057;-39
2023/05/21 04:51:27;;;;;;;0.20;0.20;;;;;;;21.63;43.97;101239.19;5138365;27;20478;-39
2023/05/21 04:53:53;;;;;;;0.20;0.20;;;;;;;21.64;43.87;101250.00;5104599;28;20407;-39
2023/05/21 04:56:20;;;;;;;0.20;0.20;;;;;;;21.63;43.97;101251.13;5117700;28;20050;-39
2023/05/21 04:58:47;;;;;;;0.20;0.20;;;;;;;21.65;43.71;101248.06;5117718;28;20081;-39
2023/05/21 05:01:13;;;;;;;0.10;0.10;;;;;;;21.65;44.00;101243.34;5134001;27;20514;-39
2023/05/21 05:03:39;;;;;;;0.10;0.10;;;;;;;21.64;44.00;101244.47;5119842;27;20076;-39
2023/05/21 05:06:06;;;;;;;0.10;0.10;;;;;;;21.64;43.91;101249.19;5137922;27;20054;-39
2023/05/21 05:08:32;;;;;;;0.13;0.13;;;;;;;21.62;43.83;101243.91;5137966;27;20081;-39
2023/05/21 05:10:58;;;;;;;0.20;0.20;;;;;;;21.63;43.95;101242.81;5137846;27;20047;-39
2023/05/21 05:13:24;;;;;;;0.10;0.10;;;;;;;21.66;43.82;101249.72;5119554;27;20080;-39
2023/05/21 05:15:52;;;;;;;0.10;0.10;;;;;;;21.66;43.86;101244.19;5138224;27;20456;-39
2023/05/21 05:18:20;;;;;;;0.20;0.20;;;;;;;21.66;43.77;101245.00;5137987;27;20046;-39
2023/05/21 05:20:46;;;;;;;0.20;0.20;;;;;;;21.65;44.03;101242.53;5137434;27;20057;-39
2023/05/21 05:23:12;;;;;;;0.13;0.13;;;;;;;21.65;43.90;101237.81;5138695;27;20047;-39
2023/05/21 05:25:37;;;;;;;0.20;0.20;;;;;;;21.64;44.03;101235.34;5137832;27;20062;-39
2023/05/21 05:28:03;;;;;;;0.20;0.20;;;;;;;21.63;43.92;101233.66;5137851;27;20050;-39
2023/05/21 05:30:29;;;;;;;0.20;0.20;;;;;;;21.64;43.69;101235.34;5137353;27;20091;-39
2023/05/21 05:32:55;;;;;;;0.20;0.20;;;;;;;21.66;43.80;101236.69;5137833;27;20103;-39
2023/05/21 05:35:21;;;;;;;0.20;0.20;;;;;;;21.66;43.90;101233.91;5126980;27;20550;-39
2023/05/21 05:37:46;;;;;;;0.20;0.20;;;;;;;21.67;43.91;101230.00;5116849;28;20051;-39
2023/05/21 05:40:12;;;;;;;0.20;0.20;;;;;;;21.66;43.91;101227.53;5124043;27;20332;-39
2023/05/21 05:42:38;;;;;;;0.20;0.20;;;;;;;21.65;43.88;101220.34;5137907;27;20054;-39
2023/05/21 05:45:03;;;;;;;0.10;0.10;;;;;;;21.65;43.84;101229.50;5118789;27;20049;-39
2023/05/21 05:47:30;;;;;;;0.10;0.10;;;;;;;21.65;43.95;101223.13;5117256;27;20074;-39
2023/05/21 05:49:55;;;;;;;0.10;0.10;;;;;;;21.64;43.84;101230.63;5098310;28;20049;-39
2023/05/21 05:52:21;;;;;;;0.10;0.10;;;;;;;21.65;44.00;101235.03;5117141;28;20112;-39
2023/05/21 05:54:47;;;;;;;0.20;0.20;;;;;;;21.63;43.96;101228.97;5116329;28;20039;-39
2023/05/21 05:57:13;;;;;;;0.20;0.20;;;;;;;21.63;43.94;101236.44;5116602;28;20481;-39
2023/05/21 05:59:38;;;;;;;0.20;0.20;;;;;;;21.63;44.01;101230.88;5100618;27;20049;-39
2023/05/21 06:02:04;;;;;;;0.20;0.20;;;;;;;21.64;43.87;101229.78;5136199;27;20084;-39
2023/05/21 06:04:30;;;;;;;0.20;0.20;;;;;;;21.63;43.91;101226.19;5137735;27;20509;-39
2023/05/21 06:06:57;;;;;;;0.20;0.20;;;;;;;21.64;44.07;101222.31;5136851;27;20111;-39
2023/05/21 06:09:23;;;;;;;0.10;0.10;;;;;;;21.63;43.97;101214.25;5136880;27;20500;-39
2023/05/21 06:11:49;;;;;;;0.20;0.20;;;;;;;21.62;43.96;101218.97;5118247;27;20073;-39
2023/05/21 06:14:14;;;;;;;0.20;0.20;;;;;;;21.64;43.88;101219.53;5137152;27;20047;-39
2023/05/21 06:16:40;;;;;;;0.20;0.20;;;;;;;21.66;43.98;101219.22;5136685;27;20054;-39
2023/05/21 06:19:06;;;;;;;0.10;0.10;;;;;;;21.65;43.88;101218.41;5118384;27;20398;-39
2023/05/21 06:21:32;;;;;;;0.20;0.20;;;;;;;21.63;43.93;101223.44;5136350;27;20107;-39
2023/05/21 06:23:58;;;;;;;0.20;0.20;;;;;;;21.62;43.98;101227.28;5137202;27;20848;-39
2023/05/21 06:26:23;;;;;;;0.20;0.20;;;;;;;21.62;43.98;101227.28;5136539;27;20195;-39
2023/05/21 06:28:49;;;;;;;0.10;0.10;;;;;;;21.64;43.88;101227.84;5136522;27;20058;-39
2023/05/21 06:31:15;;;;;;;0.15;0.15;;;;;;;21.63;43.99;101226.19;5117645;27;20049;-39
2023/05/21 06:33:41;;;;;;;0.20;0.20;;;;;;;21.66;43.86;101224.78;5136681;27;20187;-39
2023/05/21 06:36:07;;;;;;;0.10;0.10;;;;;;;21.67;43.85;101224.47;5135708;27;20042;-39
2023/05/21 06:38:32;;;;;;;0.20;0.20;;;;;;;21.65;43.86;101228.66;5115308;28;20594;-39
2023/05/21 06:40:58;;;;;;;0.20;0.20;;;;;;;21.65;43.94;101226.72;5103847;28;20516;-39
2023/05/21 06:43:24;;;;;;;0.20;0.20;;;;;;;21.64;44.06;101227.84;5115840;28;20055;-39
2023/05/21 06:45:50;;;;;;;0.20;0.20;;;;;;;21.64;43.95;101227.03;5107307;27;20047;-39
2023/05/21 06:48:16;;;;;;;0.20;0.20;;;;;;;21.65;43.91;101221.19;5115645;28;20051;-38
2023/05/21 06:50:42;;;;;;;0.20;0.20;;;;;;;21.64;43.84;101225.06;5096307;28;20597;-39
2023/05/21 06:53:08;;;;;;;0.20;0.20;;;;;;;21.64;44.04;101225.06;5115426;28;20135;-39
2023/05/21 06:55:34;;;;;;;0.20;0.20;;;;;;;21.64;44.01;101227.84;5115568;27;20054;-39
2023/05/21 06:58:00;;;;;;;0.17;0.17;;;;;;;21.67;43.90;101229.19;5115150;28;20249;-39
2023/05/21 07:00:26;;;;;;;0.20;0.20;;;;;;;21.66;43.86;101217.28;5124162;27;20208;-39
2023/05/21 07:02:52;;;;;;;0.10;0.10;;;;;;;21.65;43.95;101223.94;5136088;27;20068;-39
2023/05/21 07:05:18;;;;;;;0.20;0.20;;;;;;;21.66;43.85;101222.00;5136418;27;20284;-39
2023/05/21 07:07:43;;;;;;;0.20;0.20;;;;;;;21.64;43.84;101222.31;5135929;27;20077;-39
2023/05/21 07:10:09;;;;;;;0.17;0.17;;;;;;;21.64;43.84;101225.06;5135544;27;20098;-39
2023/05/21 07:12:35;;;;;;;0.20;0.20;;;;;;;21.64;43.93;101233.38;5136389;27;20051;-39
2023/05/21 07:15:00;;;;;;;0.10;0.10;;;;;;;21.64;43.86;101227.84;5139460;27;20499;-39
2023/05/21 07:17:26;;;;;;;0.10;0.10;;;;;;;21.64;43.97;101232.56;5121544;27;20555;-39
2023/05/21 07:19:52;;;;;;;0.15;0.15;;;;;;;21.65;44.10;101226.72;5139281;27;20454;-39
2023/05/21 07:22:17;;;;;;;0.20;0.20;;;;;;;21.67;43.81;101231.97;5139278;27;20047;-39
2023/05/21 07:24:43;;;;;;;0.20;0.20;;;;;;;21.66;43.98;101230.31;5139610;27;20494;-39
2023/05/21 07:27:09;;;;;;;0.20;0.20;;;;;;;21.66;43.94;101233.09;5139647;27;20046;-39
2023/05/21 07:29:50;;;;;;;0.20;0.20;;;;;;;21.64;44.08;101232.56;5139224;27;20043;-39
2023/05/21 07:32:16;;;;;;;0.20;0.20;;;;;;;21.65;43.90;101236.97;5139047;27;20047;-39
2023/05/21 07:34:42;;;;;;;0.20;0.20;;;;;;;21.64;43.95;101225.06;5139508;27;20067;-39
2023/05/21 07:37:07;;;;;;;0.20;0.20;;;;;;;21.63;43.92;101236.44;5138865;27;20050;-39
2023/05/21 07:39:33;;;;;;;0.20;0.20;;;;;;;21.65;44.01;101231.44;5123510;27;20438;-39
2023/05/21 07:41:59;;;;;;;0.20;0.20;;;;;;;21.65;43.86;101234.22;5139093;27;20043;-39
2023/05/21 07:44:25;;;;;;;0.20;0.20;;;;;;;21.64;43.93;101232.56;5136854;27;20061;-39
2023/05/21 07:46:50;;;;;;;0.17;0.17;;;;;;;21.62;44.09;101232.00;5118425;28;20107;-39
2023/05/21 07:49:16;;;;;;;0.20;0.20;;;;;;;21.63;43.96;101237.28;5100165;28;20148;-39
2023/05/21 07:51:42;;;;;;;0.13;0.13;;;;;;;21.67;43.83;101234.72;5138355;27;20050;-39
2023/05/21 07:54:09;;;;;;;0.10;0.10;;;;;;;21.64;43.84;101224.25;5138972;27;20043;-39
2023/05/21 07:56:34;;;;;;;0.20;0.20;;;;;;;21.66;43.87;101233.09;5119791;27;20299;-39
2023/05/21 07:59:00;;;;;;;0.20;0.20;;;;;;;21.66;43.84;101227.53;5125187;27;20361;-39
2023/05/21 08:01:28;;;;;;;0.20;0.20;;;;;;;21.67;43.85;101227.25;5135708;27;20049;-39
2023/05/21 08:03:54;;;;;;;0.10;0.10;;;;;;;21.66;43.98;101225.59;5138590;27;20478;-39
2023/05/21 08:06:21;;;;;;;0.20;0.20;;;;;;;21.65;43.99;101226.72;5119922;27;20057;-39
2023/05/21 08:08:46;;;;;;;0.20;0.20;;;;;;;21.65;43.94;101234.22;5120356;27;20433;-39
2023/05/21 08:11:12;;;;;;;0.20;0.20;;;;;;;21.64;43.97;101221.47;5138473;27;20522;-39
2023/05/21 08:13:38;;;;;;;0.20;0.20;;;;;;;21.64;44.23;101227.84;5138681;27;20493;-39
2023/05/21 08:16:04;;;;;;;0.13;0.13;;;;;;;21.65;43.96;101221.19;5138506;27;20046;-39
2023/05/21 08:18:30;;;;;;;0.20;0.20;;;;;;;21.65;44.09;101218.41;5138632;27;20043;-39
2023/05/21 08:20:56;;;;;;;0.20;0.20;;;;;;;21.67;43.87;101218.94;5119864;27;20417;-39
2023/05/21 08:23:22;;;;;;;0.20;0.20;;;;;;;21.65;44.03;101221.19;5120123;27;20043;-39
2023/05/21 08:25:47;;;;;;;0.20;0.20;;;;;;;21.65;43.95;101221.19;5137809;27;20050;-39
2023/05/21 08:28:13;;;;;;;0.20;0.20;;;;;;;21.65;43.94;101225.91;5138633;27;20042;-39
2023/05/21 08:30:40;;;;;;;0.20;0.20;;;;;;;21.65;43.99;101226.72;5138442;27;20043;-39
2023/05/21 08:33:05;;;;;;;0.20;0.20;;;;;;;21.65;43.94;101232.25;5120041;27;20050;-39
2023/05/21 08:35:31;;;;;;;0.20;0.20;;;;;;;21.65;44.15;101235.03;5138427;27;20043;-39
2023/05/21 08:37:57;;;;;;;0.20;0.20;;;;;;;21.65;43.95;101221.19;5137656;27;20043;-39
2023/05/21 08:40:23;;;;;;;0.20;0.20;;;;;;;21.66;43.89;101228.38;5130989;27;20047;-39
2023/05/21 08:42:49;;;;;;;0.20;0.20;;;;;;;21.64;43.96;101227.84;5117807;28;20421;-39
2023/05/21 08:45:19;;;;;;;0.10;0.10;;;;;;;21.68;43.81;101230.88;5110806;27;20631;-39
2023/05/21 08:47:45;;;;;;;0.20;0.20;;;;;;;21.65;44.12;101221.19;5138248;27;20050;-39
2023/05/21 08:50:12;;;;;;;0.20;0.20;;;;;;;21.65;43.78;101214.81;5087338;28;20054;-38
2023/05/21 08:52:38;;;;;;;0.20;0.20;;;;;;;21.69;43.91;101218.66;5099374;28;20050;-39
2023/05/21 08:55:05;;;;;;;0.20;0.20;;;;;;;21.66;43.91;101208.97;5099161;28;20053;-39
2023/05/21 08:57:30;;;;;;;0.20;0.20;;;;;;;21.65;44.07;101215.63;5117266;28;20050;-39
2023/05/21 08:59:57;;;;;;;0.20;0.20;;;;;;;21.66;43.98;101210.91;5099111;28;20074;-39
2023/05/21 09:02:23;;;;;;;0.20;0.20;;;;;;;21.64;43.99;101202.06;5117591;27;20277;-39
2023/05/21 09:04:55;;;;;;;0.20;0.20;;;;;;;21.66;44.01;101206.19;5117366;27;20054;-39
2023/05/21 09:07:24;;;;;;;0.10;0.10;;;;;;;21.66;43.89;101200.66;5116927;27;20090;-39
2023/05/21 09:09:56;;;;;;;0.20;0.20;;;;;;;21.63;44.02;101198.47;5121223;27;20051;-39
2023/05/21 09:12:24;;;;;;;0.20;0.20;;;;;;;21.67;43.82;101204.25;5137750;27;20484;-39
2023/05/21 09:14:50;;;;;;;0.20;0.20;;;;;;;21.65;43.87;101200.94;5137885;27;20376;-39
2023/05/21 09:17:15;;;;;;;0.20;0.20;;;;;;;21.66;43.93;101203.41;5119370;27;20045;-39
2023/05/21 09:20:08;;;;;;;0.20;0.20;;;;;;;21.67;43.98;101199.53;5137907;27;20099;-39
2023/05/21 09:22:36;;;;;;;0.20;0.20;;;;;;;21.65;43.86;101204.53;5124010;27;20077;-39
2023/05/21 09:25:03;;;;;;;;;;;;;;;21.65;44.00;101209.25;5138608;27;20086;-39
2023/05/21 09:27:29;;;;;;;0.20;0.20;;;;;;;21.65;43.91;101198.19;5138089;27;20314;-39
2023/05/21 09:29:54;;;;;;;0.20;0.20;;;;;;;21.66;43.89;101200.66;5137762;27;20474;-39
2023/05/21 09:32:20;;;;;;;0.20;0.20;;;;;;;21.67;43.90;101207.84;5138389;27;20051;-39
2023/05/21 09:34:46;;;;;;;0.20;0.20;;;;;;;21.66;43.92;101205.38;5137679;27;20090;-39
2023/05/21 09:37:12;;;;;;;0.20;0.20;;;;;;;21.66;44.02;101200.66;5135987;27;20482;-39
2023/05/21 09:39:52;;;;;;;0.20;0.20;;;;;;;21.65;43.91;101201.78;5137120;27;20800;-39
2023/05/21 09:42:19;;;;;;;0.20;0.20;;;;;;;21.68;43.88;101209.50;5127383;27;20872;-39
2023/05/21 09:44:46;;;;;;;0.20;0.20;;;;;;;21.68;43.81;101200.38;5116939;27;20264;-39
2023/05/21 09:47:11;;;;;;;0.10;0.10;;;;;;;21.67;44.04;101195.94;5116260;27;20055;-39
2023/05/21 09:49:37;;;;;;;0.20;0.20;;;;;;;21.66;43.96;101195.09;5119040;27;20051;-39
2023/05/21 09:52:03;;;;;;;0.13;0.13;;;;;;;21.64;44.03;101186.28;5118848;27;20545;-39
2023/05/21 09:54:32;;;;;;;0.20;0.20;;;;;;;21.67;43.81;101193.16;5117419;28;20134;-39
2023/05/21 09:57:00;;;;;;;0.20;0.20;;;;;;;21.64;44.01;101194.59;5098574;28;20636;-39
2023/05/21 09:59:34;;;;;;;0.20;0.20;;;;;;;21.66;43.99;101194.28;5099396;27;20401;-39
2023/05/21 10:02:01;;;;;;;0.20;0.20;;;;;;;21.64;44.00;101191.00;5128728;27;20974;-39
2023/05/21 10:04:29;;;;;;;0.10;0.10;;;;;;;21.66;43.99;101178.47;5117066;27;20051;-39
2023/05/21 10:06:55;;;;;;;0.20;0.20;;;;;;;21.67;44.05;101180.13;5116288;27;20096;-39
2023/05/21 10:09:21;;;;;;;0.20;0.20;;;;;;;21.65;44.01;101185.16;5116392;27;20043;-39
2023/05/21 10:11:48;;;;;;;0.10;0.10;;;;;;;21.65;44.02;101185.16;5137023;27;20047;-38
2023/05/21 10:14:17;;;;;;;0.10;0.10;;;;;;;21.67;43.87;101179.31;5118902;27;20292;-39
2023/05/21 10:16:43;;;;;;;0.10;0.10;;;;;;;21.66;44.00;101172.09;5118716;27;20035;-39
2023/05/21 10:19:10;;;;;;;0.20;0.20;;;;;;;21.67;43.91;101169.03;5137251;27;20057;-39
2023/05/21 10:21:36;;;;;;;0.10;0.10;;;;;;;21.67;44.05;101168.22;5136711;27;20046;-39
2023/05/21 10:24:03;;;;;;;0.10;0.10;;;;;;;21.67;43.89;101173.75;5137299;27;20039;-39
2023/05/21 10:26:29;;;;;;;0.20;0.20;;;;;;;21.66;44.04;101167.38;5137008;27;20043;-39
2023/05/21 10:28:56;;;;;;;0.20;0.20;;;;;;;21.65;43.98;101160.19;5117710;27;20111;-39
2023/05/21 10:31:21;;;;;;;0.10;0.10;;;;;;;21.66;43.93;101161.03;5136173;27;20053;-39
2023/05/21 10:33:47;;;;;;;0.20;0.20;;;;;;;21.65;43.98;101164.91;5118047;27;20138;-39
2023/05/21 10:36:16;;;;;;;0.10;0.10;;;;;;;21.65;44.02;101159.38;5117869;27;20047;-39
2023/05/21 10:38:42;;;;;;;0.10;0.10;;;;;;;21.66;44.04;101164.63;5117299;27;20940;-39
2023/05/21 10:41:08;;;;;;;0.20;0.20;;;;;;;21.66;43.97;101166.56;5135689;27;20050;-38
2023/05/21 10:43:57;;;;;;;0.20;0.20;;;;;;;21.67;43.97;101163.50;5118059;27;20050;-39
2023/05/21 10:49:43;;;;;;;0.20;0.20;;;;;;;21.67;44.06;101146.03;5174726;27;20844;-37
2023/05/21 10:52:33;;;;;;;0.10;0.10;;;;;;;21.67;44.04;101151.59;5118682;27;20130;-37
2023/05/21 10:55:39;;;;;;;0.10;0.10;;;;;;;21.65;43.90;101139.97;5114611;27;20431;-37
2023/05/21 10:58:44;;;;;;;0.10;0.10;;;;;;;21.68;43.92;101140.22;5117502;27;20043;-37
2023/05/21 11:01:10;;;;;;;0.20;0.20;;;;;;;21.68;43.92;101139.41;5117169;27;20042;-37
2023/05/21 11:03:36;;;;;;;0.10;0.10;;;;;;;21.67;44.06;101140.50;5139136;27;20050;-37
2023/05/21 11:06:05;;;;;;;0.20;0.20;;;;;;;21.66;43.99;101136.91;5154000;27;20046;-37
2023/05/21 11:08:34;;;;;;;0.10;0.10;;;;;;;21.65;44.09;101135.25;5153628;27;20077;-37
2023/05/21 11:11:01;;;;;;;0.10;0.10;;;;;;;21.67;43.94;101140.50;5124464;27;20110;-37
2023/05/21 11:13:31;;;;;;;0.10;0.10;;;;;;;21.66;44.05;101128.59;5134591;27;20049;-37
2023/05/21 11:21:13;;;;;;;0.10;0.10;;;;;;;21.67;44.00;101132.19;5174247;27;20123;-37
2023/05/21 11:24:05;;;;;;;0.20;0.20;;;;;;;21.68;43.85;101126.38;5135030;27;20559;-37
2023/05/21 11:29:39;;;;;;;0.20;0.20;;;;;;;21.67;43.98;101113.59;5174751;27;20127;-37
2023/05/21 11:32:07;;;;;;;0.20;0.20;;;;;;;21.68;43.90;101114.44;5123493;27;20038;-37
2023/05/21 11:34:38;;;;;;;0.20;0.20;;;;;;;21.66;43.99;101122.22;5114565;27;20047;-37
2023/05/21 11:39:55;;;;;;;0.13;0.13;;;;;;;21.67;44.04;101112.78;5174769;27;20631;-37